sensor_id;sensor_type;location;lat;lon;timestamp;P1;durP1;ratioP1;P2;durP2;ratioP2
17997;SDS011;9124;48.144;17.098;2023-04-03T00:01:08;2.50;;;2.30;;
17997;SDS011;9124;48.144;17.098;2023-04-03T00:04:45;3.15;;;2.92;;
17997;SDS011;9124;48.144;17.098;2023-04-03T00:08:21;2.95;;;2.75;;
17997;SDS011;9124;48.144;17.098;2023-04-03T00:11:58;2.78;;;2.58;;
17997;SDS011;9124;48.144;17.098;2023-04-03T00:15:35;2.20;;;2.10;;
17997;SDS011;9124;48.144;17.098;2023-04-03T00:19:12;3.80;;;2.70;;
17997;SDS011;9124;48.144;17.098;2023-04-03T00:22:49;2.55;;;2.38;;
17997;SDS011;9124;48.144;17.098;2023-04-03T00:26:25;3.75;;;2.33;;
17997;SDS011;9124;48.144;17.098;2023-04-03T00:30:02;2.75;;;2.22;;
17997;SDS011;9124;48.144;17.098;2023-04-03T00:33:39;2.30;;;2.10;;
17997;SDS011;9124;48.144;17.098;2023-04-03T00:37:15;2.90;;;2.63;;
17997;SDS011;9124;48.144;17.098;2023-04-03T00:40:52;2.58;;;2.38;;
17997;SDS011;9124;48.144;17.098;2023-04-03T00:48:12;2.72;;;2.53;;
17997;SDS011;9124;48.144;17.098;2023-04-03T00:51:53;2.33;;;2.17;;
17997;SDS011;9124;48.144;17.098;2023-04-03T00:55:31;2.47;;;2.28;;
17997;SDS011;9124;48.144;17.098;2023-04-03T00:59:10;2.70;;;2.50;;
17997;SDS011;9124;48.144;17.098;2023-04-03T01:02:53;3.03;;;2.83;;
17997;SDS011;9124;48.144;17.098;2023-04-03T01:06:31;2.72;;;2.53;;
17997;SDS011;9124;48.144;17.098;2023-04-03T01:10:17;2.70;;;2.50;;
17997;SDS011;9124;48.144;17.098;2023-04-03T01:13:57;3.05;;;2.53;;
17997;SDS011;9124;48.144;17.098;2023-04-03T01:25:23;2.75;;;2.55;;
17997;SDS011;9124;48.144;17.098;2023-04-03T01:29:01;2.42;;;2.22;;
17997;SDS011;9124;48.144;17.098;2023-04-03T01:32:38;2.97;;;2.78;;
17997;SDS011;9124;48.144;17.098;2023-04-03T01:36:22;2.90;;;2.53;;
17997;SDS011;9124;48.144;17.098;2023-04-03T01:40:02;2.83;;;2.63;;
17997;SDS011;9124;48.144;17.098;2023-04-03T01:43:39;2.90;;;2.70;;
17997;SDS011;9124;48.144;17.098;2023-04-03T01:47:16;3.00;;;2.80;;
17997;SDS011;9124;48.144;17.098;2023-04-03T01:50:53;2.85;;;2.65;;
17997;SDS011;9124;48.144;17.098;2023-04-03T01:54:30;2.80;;;2.60;;
17997;SDS011;9124;48.144;17.098;2023-04-03T01:58:06;3.53;;;2.65;;
17997;SDS011;9124;48.144;17.098;2023-04-03T02:01:43;2.08;;;1.98;;
17997;SDS011;9124;48.144;17.098;2023-04-03T02:05:21;3.10;;;2.80;;
17997;SDS011;9124;48.144;17.098;2023-04-03T02:08:57;2.67;;;2.47;;
17997;SDS011;9124;48.144;17.098;2023-04-03T02:12:34;2.90;;;2.70;;
17997;SDS011;9124;48.144;17.098;2023-04-03T02:16:10;3.40;;;3.08;;
17997;SDS011;9124;48.144;17.098;2023-04-03T02:19:48;3.95;;;3.17;;
17997;SDS011;9124;48.144;17.098;2023-04-03T02:23:24;2.90;;;2.70;;
17997;SDS011;9124;48.144;17.098;2023-04-03T02:27:01;3.55;;;3.25;;
17997;SDS011;9124;48.144;17.098;2023-04-03T02:30:37;3.20;;;3.00;;
17997;SDS011;9124;48.144;17.098;2023-04-03T02:34:14;4.70;;;3.25;;
17997;SDS011;9124;48.144;17.098;2023-04-03T02:37:51;2.97;;;2.78;;
17997;SDS011;9124;48.144;17.098;2023-04-03T02:41:28;4.18;;;3.80;;
17997;SDS011;9124;48.144;17.098;2023-04-03T02:45:12;3.80;;;3.60;;
17997;SDS011;9124;48.144;17.098;2023-04-03T02:48:50;3.95;;;3.55;;
17997;SDS011;9124;48.144;17.098;2023-04-03T02:52:28;3.88;;;3.53;;
17997;SDS011;9124;48.144;17.098;2023-04-03T02:56:07;4.30;;;3.88;;
17997;SDS011;9124;48.144;17.098;2023-04-03T02:59:44;4.65;;;4.35;;
17997;SDS011;9124;48.144;17.098;2023-04-03T03:03:21;4.78;;;4.28;;
17997;SDS011;9124;48.144;17.098;2023-04-03T03:06:58;5.45;;;4.97;;
17997;SDS011;9124;48.144;17.098;2023-04-03T03:10:35;4.78;;;4.47;;
17997;SDS011;9124;48.144;17.098;2023-04-03T03:14:11;6.10;;;4.68;;
17997;SDS011;9124;48.144;17.098;2023-04-03T03:17:48;5.22;;;4.78;;
17997;SDS011;9124;48.144;17.098;2023-04-03T03:21:24;5.18;;;4.68;;
17997;SDS011;9124;48.144;17.098;2023-04-03T03:25:01;4.22;;;3.92;;
17997;SDS011;9124;48.144;17.098;2023-04-03T03:28:38;3.90;;;3.63;;
17997;SDS011;9124;48.144;17.098;2023-04-03T03:32:16;4.55;;;3.75;;
17997;SDS011;9124;48.144;17.098;2023-04-03T03:35:53;5.47;;;3.83;;
17997;SDS011;9124;48.144;17.098;2023-04-03T03:39:29;3.67;;;3.42;;
17997;SDS011;9124;48.144;17.098;2023-04-03T03:43:06;5.00;;;3.38;;
17997;SDS011;9124;48.144;17.098;2023-04-03T03:46:42;4.18;;;3.28;;
17997;SDS011;9124;48.144;17.098;2023-04-03T03:50:19;4.15;;;3.40;;
17997;SDS011;9124;48.144;17.098;2023-04-03T03:53:56;3.55;;;3.35;;
17997;SDS011;9124;48.144;17.098;2023-04-03T03:57:32;3.17;;;2.95;;
17997;SDS011;9124;48.144;17.098;2023-04-03T04:01:09;3.90;;;3.60;;
17997;SDS011;9124;48.144;17.098;2023-04-03T04:04:52;4.57;;;4.00;;
17997;SDS011;9124;48.144;17.098;2023-04-03T04:08:29;4.63;;;4.22;;
17997;SDS011;9124;48.144;17.098;2023-04-03T04:12:05;4.63;;;4.25;;
17997;SDS011;9124;48.144;17.098;2023-04-03T04:15:42;6.55;;;4.75;;
17997;SDS011;9124;48.144;17.098;2023-04-03T04:19:19;5.82;;;5.28;;
17997;SDS011;9124;48.144;17.098;2023-04-03T04:22:56;6.38;;;4.78;;
17997;SDS011;9124;48.144;17.098;2023-04-03T04:26:34;4.93;;;4.53;;
17997;SDS011;9124;48.144;17.098;2023-04-03T04:30:11;5.43;;;4.10;;
17997;SDS011;9124;48.144;17.098;2023-04-03T04:33:47;12.20;;;5.03;;
17997;SDS011;9124;48.144;17.098;2023-04-03T04:37:25;5.43;;;4.60;;
17997;SDS011;9124;48.144;17.098;2023-04-03T04:41:02;5.90;;;5.30;;
17997;SDS011;9124;48.144;17.098;2023-04-03T04:44:40;6.18;;;5.68;;
17997;SDS011;9124;48.144;17.098;2023-04-03T04:48:18;5.45;;;4.95;;
17997;SDS011;9124;48.144;17.098;2023-04-03T04:51:55;5.28;;;4.78;;
17997;SDS011;9124;48.144;17.098;2023-04-03T04:55:37;5.10;;;4.70;;
17997;SDS011;9124;48.144;17.098;2023-04-03T04:59:14;5.10;;;4.60;;
17997;SDS011;9124;48.144;17.098;2023-04-03T05:02:52;5.18;;;4.78;;
17997;SDS011;9124;48.144;17.098;2023-04-03T05:06:29;4.95;;;4.55;;
17997;SDS011;9124;48.144;17.098;2023-04-03T05:10:09;4.93;;;4.53;;
17997;SDS011;9124;48.144;17.098;2023-04-03T05:13:46;9.60;;;5.10;;
17997;SDS011;9124;48.144;17.098;2023-04-03T05:17:23;6.32;;;4.47;;
17997;SDS011;9124;48.144;17.098;2023-04-03T05:21:03;4.82;;;4.43;;
17997;SDS011;9124;48.144;17.098;2023-04-03T05:24:40;4.78;;;4.22;;
17997;SDS011;9124;48.144;17.098;2023-04-03T05:28:18;4.47;;;4.07;;
17997;SDS011;9124;48.144;17.098;2023-04-03T05:31:54;6.28;;;3.95;;
17997;SDS011;9124;48.144;17.098;2023-04-03T05:35:31;3.60;;;3.40;;
17997;SDS011;9124;48.144;17.098;2023-04-03T05:39:10;3.88;;;3.50;;
17997;SDS011;9124;48.144;17.098;2023-04-03T05:42:50;5.88;;;3.65;;
17997;SDS011;9124;48.144;17.098;2023-04-03T05:46:29;4.38;;;4.05;;
17997;SDS011;9124;48.144;17.098;2023-04-03T05:50:07;4.40;;;4.00;;
17997;SDS011;9124;48.144;17.098;2023-04-03T05:53:44;4.60;;;4.13;;
17997;SDS011;9124;48.144;17.098;2023-04-03T05:57:23;7.07;;;3.95;;
17997;SDS011;9124;48.144;17.098;2023-04-03T06:01:00;6.93;;;4.22;;
17997;SDS011;9124;48.144;17.098;2023-04-03T06:04:38;3.75;;;3.42;;
17997;SDS011;9124;48.144;17.098;2023-04-03T06:08:14;8.23;;;3.95;;
17997;SDS011;9124;48.144;17.098;2023-04-03T06:11:50;8.00;;;3.70;;
17997;SDS011;9124;48.144;17.098;2023-04-03T06:15:29;4.15;;;3.85;;
17997;SDS011;9124;48.144;17.098;2023-04-03T06:19:06;4.22;;;3.85;;
17997;SDS011;9124;48.144;17.098;2023-04-03T06:22:44;4.65;;;4.10;;
17997;SDS011;9124;48.144;17.098;2023-04-03T06:26:21;3.75;;;3.47;;
17997;SDS011;9124;48.144;17.098;2023-04-03T06:29:58;4.15;;;3.22;;
17997;SDS011;9124;48.144;17.098;2023-04-03T06:33:34;3.55;;;3.25;;
17997;SDS011;9124;48.144;17.098;2023-04-03T06:37:14;3.70;;;3.40;;
17997;SDS011;9124;48.144;17.098;2023-04-03T06:40:53;8.00;;;3.10;;
17997;SDS011;9124;48.144;17.098;2023-04-03T06:44:29;6.18;;;3.63;;
17997;SDS011;9124;48.144;17.098;2023-04-03T06:48:06;7.40;;;3.35;;
17997;SDS011;9124;48.144;17.098;2023-04-03T06:51:42;3.30;;;3.10;;
17997;SDS011;9124;48.144;17.098;2023-04-03T06:55:19;3.95;;;3.10;;
17997;SDS011;9124;48.144;17.098;2023-04-03T06:58:56;3.53;;;3.03;;
17997;SDS011;9124;48.144;17.098;2023-04-03T07:02:33;3.03;;;2.83;;
17997;SDS011;9124;48.144;17.098;2023-04-03T07:06:11;3.60;;;2.78;;
17997;SDS011;9124;48.144;17.098;2023-04-03T07:09:48;2.58;;;2.38;;
17997;SDS011;9124;48.144;17.098;2023-04-03T07:13:25;3.03;;;2.35;;
17997;SDS011;9124;48.144;17.098;2023-04-03T07:17:02;2.70;;;2.50;;
17997;SDS011;9124;48.144;17.098;2023-04-03T07:20:39;3.80;;;2.58;;
17997;SDS011;9124;48.144;17.098;2023-04-03T07:24:15;3.20;;;2.75;;
17997;SDS011;9124;48.144;17.098;2023-04-03T07:27:52;3.03;;;2.67;;
17997;SDS011;9124;48.144;17.098;2023-04-03T07:31:30;3.13;;;2.65;;
17997;SDS011;9124;48.144;17.098;2023-04-03T07:35:07;3.35;;;3.05;;
17997;SDS011;9124;48.144;17.098;2023-04-03T07:38:43;3.08;;;2.88;;
17997;SDS011;9124;48.144;17.098;2023-04-03T07:42:21;3.50;;;3.17;;
17997;SDS011;9124;48.144;17.098;2023-04-03T07:45:57;2.55;;;2.35;;
17997;SDS011;9124;48.144;17.098;2023-04-03T07:49:34;3.47;;;3.17;;
17997;SDS011;9124;48.144;17.098;2023-04-03T07:53:13;3.53;;;3.22;;
17997;SDS011;9124;48.144;17.098;2023-04-03T07:56:51;3.78;;;3.05;;
17997;SDS011;9124;48.144;17.098;2023-04-03T08:00:27;3.53;;;3.22;;
17997;SDS011;9124;48.144;17.098;2023-04-03T08:04:05;2.90;;;2.65;;
17997;SDS011;9124;48.144;17.098;2023-04-03T08:07:42;2.60;;;2.50;;
17997;SDS011;9124;48.144;17.098;2023-04-03T08:11:18;3.33;;;3.03;;
17997;SDS011;9124;48.144;17.098;2023-04-03T08:14:56;2.58;;;2.38;;
17997;SDS011;9124;48.144;17.098;2023-04-03T08:18:35;2.95;;;2.42;;
17997;SDS011;9124;48.144;17.098;2023-04-03T08:22:11;2.50;;;2.30;;
17997;SDS011;9124;48.144;17.098;2023-04-03T08:25:47;2.65;;;2.45;;
17997;SDS011;9124;48.144;17.098;2023-04-03T08:29:24;2.50;;;2.05;;
17997;SDS011;9124;48.144;17.098;2023-04-03T08:33:01;4.10;;;2.22;;
17997;SDS011;9124;48.144;17.098;2023-04-03T08:36:38;4.13;;;2.30;;
17997;SDS011;9124;48.144;17.098;2023-04-03T08:40:15;2.22;;;2.03;;
17997;SDS011;9124;48.144;17.098;2023-04-03T08:48:04;2.55;;;2.35;;
17997;SDS011;9124;48.144;17.098;2023-04-03T08:51:43;3.25;;;2.67;;
17997;SDS011;9124;48.144;17.098;2023-04-03T08:55:34;2.47;;;2.28;;
17997;SDS011;9124;48.144;17.098;2023-04-03T08:59:24;2.28;;;2.08;;
17997;SDS011;9124;48.144;17.098;2023-04-03T09:03:04;2.10;;;1.90;;
17997;SDS011;9124;48.144;17.098;2023-04-03T09:06:52;1.90;;;1.70;;
17997;SDS011;9124;48.144;17.098;2023-04-03T09:10:34;1.63;;;1.52;;
17997;SDS011;9124;48.144;17.098;2023-04-03T09:18:16;2.10;;;1.95;;
17997;SDS011;9124;48.144;17.098;2023-04-03T09:25:56;2.58;;;1.90;;
17997;SDS011;9124;48.144;17.098;2023-04-03T09:29:45;2.40;;;2.20;;
17997;SDS011;9124;48.144;17.098;2023-04-03T09:33:22;4.90;;;2.42;;
17997;SDS011;9124;48.144;17.098;2023-04-03T09:36:59;2.78;;;2.28;;
17997;SDS011;9124;48.144;17.098;2023-04-03T09:40:42;2.60;;;2.40;;
17997;SDS011;9124;48.144;17.098;2023-04-03T09:44:22;3.63;;;2.42;;
17997;SDS011;9124;48.144;17.098;2023-04-03T09:51:49;4.63;;;1.90;;
17997;SDS011;9124;48.144;17.098;2023-04-03T09:55:26;2.30;;;2.10;;
17997;SDS011;9124;48.144;17.098;2023-04-03T09:59:07;3.90;;;2.58;;
17997;SDS011;9124;48.144;17.098;2023-04-03T10:02:54;4.30;;;2.33;;
17997;SDS011;9124;48.144;17.098;2023-04-03T10:06:33;2.35;;;1.88;;
17997;SDS011;9124;48.144;17.098;2023-04-03T10:10:16;2.65;;;2.28;;
17997;SDS011;9124;48.144;17.098;2023-04-03T10:13:59;2.80;;;2.05;;
17997;SDS011;9124;48.144;17.098;2023-04-03T10:21:43;2.08;;;1.95;;
17997;SDS011;9124;48.144;17.098;2023-04-03T10:37:29;5.10;;;2.03;;
17997;SDS011;9124;48.144;17.098;2023-04-03T10:45:05;13.10;;;3.15;;
17997;SDS011;9124;48.144;17.098;2023-04-03T10:49:00;4.15;;;2.28;;
17997;SDS011;9124;48.144;17.098;2023-04-03T10:52:48;1.83;;;1.63;;
17997;SDS011;9124;48.144;17.098;2023-04-03T11:00:35;2.42;;;2.22;;
17997;SDS011;9124;48.144;17.098;2023-04-03T11:04:24;2.90;;;2.10;;
17997;SDS011;9124;48.144;17.098;2023-04-03T11:08:08;2.38;;;2.17;;
17997;SDS011;9124;48.144;17.098;2023-04-03T11:12:14;3.22;;;2.80;;
17997;SDS011;9124;48.144;17.098;2023-04-03T11:15:57;4.78;;;2.70;;
17997;SDS011;9124;48.144;17.098;2023-04-03T11:19:35;1.98;;;1.88;;
17997;SDS011;9124;48.144;17.098;2023-04-03T11:23:26;3.28;;;2.05;;
17997;SDS011;9124;48.144;17.098;2023-04-03T11:27:15;4.65;;;2.53;;
17997;SDS011;9124;48.144;17.098;2023-04-03T11:31:13;4.53;;;2.60;;
17997;SDS011;9124;48.144;17.098;2023-04-03T11:35:04;2.30;;;2.10;;
17997;SDS011;9124;48.144;17.098;2023-04-03T11:38:43;4.25;;;2.53;;
17997;SDS011;9124;48.144;17.098;2023-04-03T11:42:29;5.97;;;2.17;;
17997;SDS011;9124;48.144;17.098;2023-04-03T11:46:10;6.15;;;2.50;;
17997;SDS011;9124;48.144;17.098;2023-04-03T11:49:50;3.22;;;2.50;;
17997;SDS011;9124;48.144;17.098;2023-04-03T11:53:39;4.88;;;2.22;;
17997;SDS011;9124;48.144;17.098;2023-04-03T11:57:28;2.50;;;2.30;;
17997;SDS011;9124;48.144;17.098;2023-04-03T12:01:42;10.93;;;2.10;;
17997;SDS011;9124;48.144;17.098;2023-04-03T12:05:29;3.65;;;2.55;;
17997;SDS011;9124;48.144;17.098;2023-04-03T12:13:18;4.35;;;3.25;;
17997;SDS011;9124;48.144;17.098;2023-04-03T12:16:55;2.90;;;2.70;;
17997;SDS011;9124;48.144;17.098;2023-04-03T12:24:35;3.80;;;2.70;;
17997;SDS011;9124;48.144;17.098;2023-04-03T12:28:15;3.35;;;2.35;;
17997;SDS011;9124;48.144;17.098;2023-04-03T12:35:57;4.45;;;2.60;;
17997;SDS011;9124;48.144;17.098;2023-04-03T12:40:10;3.40;;;2.58;;
17997;SDS011;9124;48.144;17.098;2023-04-03T12:48:12;2.33;;;2.13;;
17997;SDS011;9124;48.144;17.098;2023-04-03T12:51:55;2.70;;;2.50;;
17997;SDS011;9124;48.144;17.098;2023-04-03T12:55:32;3.78;;;2.70;;
17997;SDS011;9124;48.144;17.098;2023-04-03T13:03:23;4.32;;;2.97;;
17997;SDS011;9124;48.144;17.098;2023-04-03T13:07:26;2.47;;;2.33;;
17997;SDS011;9124;48.144;17.098;2023-04-03T13:11:13;3.65;;;2.75;;
17997;SDS011;9124;48.144;17.098;2023-04-03T13:14:52;5.40;;;2.58;;
17997;SDS011;9124;48.144;17.098;2023-04-03T13:18:31;5.35;;;2.63;;
17997;SDS011;9124;48.144;17.098;2023-04-03T13:25:52;5.05;;;2.90;;
17997;SDS011;9124;48.144;17.098;2023-04-03T13:29:34;2.60;;;2.40;;
17997;SDS011;9124;48.144;17.098;2023-04-03T13:33:23;2.63;;;2.42;;
17997;SDS011;9124;48.144;17.098;2023-04-03T13:37:02;5.70;;;2.63;;
17997;SDS011;9124;48.144;17.098;2023-04-03T13:44:29;2.97;;;2.72;;
17997;SDS011;9124;48.144;17.098;2023-04-03T13:48:18;3.58;;;2.53;;
17997;SDS011;9124;48.144;17.098;2023-04-03T13:51:56;3.67;;;2.63;;
17997;SDS011;9124;48.144;17.098;2023-04-03T13:55:34;3.63;;;2.20;;
17997;SDS011;9124;48.144;17.098;2023-04-03T14:02:53;2.53;;;2.33;;
17997;SDS011;9124;48.144;17.098;2023-04-03T14:06:32;9.10;;;2.13;;
17997;SDS011;9124;48.144;17.098;2023-04-03T14:10:09;6.15;;;2.20;;
17997;SDS011;9124;48.144;17.098;2023-04-03T14:13:46;13.20;;;2.20;;
17997;SDS011;9124;48.144;17.098;2023-04-03T14:17:23;2.53;;;1.70;;
17997;SDS011;9124;48.144;17.098;2023-04-03T14:21:02;3.38;;;2.13;;
17997;SDS011;9124;48.144;17.098;2023-04-03T14:24:38;3.92;;;2.47;;
17997;SDS011;9124;48.144;17.098;2023-04-03T14:28:19;6.72;;;2.05;;
17997;SDS011;9124;48.144;17.098;2023-04-03T14:31:57;2.50;;;1.80;;
17997;SDS011;9124;48.144;17.098;2023-04-03T14:35:34;3.25;;;2.30;;
17997;SDS011;9124;48.144;17.098;2023-04-03T14:39:15;4.00;;;2.05;;
17997;SDS011;9124;48.144;17.098;2023-04-03T14:42:54;5.28;;;2.13;;
17997;SDS011;9124;48.144;17.098;2023-04-03T14:46:32;6.72;;;1.73;;
17997;SDS011;9124;48.144;17.098;2023-04-03T14:50:18;3.70;;;2.00;;
17997;SDS011;9124;48.144;17.098;2023-04-03T14:53:56;5.78;;;1.58;;
17997;SDS011;9124;48.144;17.098;2023-04-03T14:57:34;4.20;;;2.13;;
17997;SDS011;9124;48.144;17.098;2023-04-03T15:01:11;2.80;;;2.38;;
17997;SDS011;9124;48.144;17.098;2023-04-03T15:04:49;2.03;;;1.92;;
17997;SDS011;9124;48.144;17.098;2023-04-03T15:08:26;3.30;;;1.75;;
17997;SDS011;9124;48.144;17.098;2023-04-03T15:12:07;2.53;;;1.42;;
17997;SDS011;9124;48.144;17.098;2023-04-03T15:15:44;2.88;;;2.17;;
17997;SDS011;9124;48.144;17.098;2023-04-03T15:19:24;3.65;;;1.98;;
17997;SDS011;9124;48.144;17.098;2023-04-03T15:23:00;5.13;;;2.03;;
17997;SDS011;9124;48.144;17.098;2023-04-03T15:26:37;5.57;;;2.15;;
17997;SDS011;9124;48.144;17.098;2023-04-03T15:30:15;4.35;;;1.60;;
17997;SDS011;9124;48.144;17.098;2023-04-03T15:33:54;9.35;;;2.00;;
17997;SDS011;9124;48.144;17.098;2023-04-03T15:37:30;3.33;;;1.63;;
17997;SDS011;9124;48.144;17.098;2023-04-03T15:41:07;2.35;;;1.45;;
17997;SDS011;9124;48.144;17.098;2023-04-03T15:44:44;2.38;;;1.48;;
17997;SDS011;9124;48.144;17.098;2023-04-03T15:48:20;2.45;;;1.73;;
17997;SDS011;9124;48.144;17.098;2023-04-03T15:51:56;2.38;;;1.45;;
17997;SDS011;9124;48.144;17.098;2023-04-03T15:55:35;3.72;;;1.77;;
17997;SDS011;9124;48.144;17.098;2023-04-03T15:59:12;1.58;;;1.48;;
17997;SDS011;9124;48.144;17.098;2023-04-03T16:02:50;1.40;;;1.30;;
17997;SDS011;9124;48.144;17.098;2023-04-03T16:06:30;3.53;;;1.50;;
17997;SDS011;9124;48.144;17.098;2023-04-03T16:10:11;1.67;;;1.48;;
17997;SDS011;9124;48.144;17.098;2023-04-03T16:13:48;6.15;;;1.52;;
17997;SDS011;9124;48.144;17.098;2023-04-03T16:17:25;1.80;;;1.48;;
17997;SDS011;9124;48.144;17.098;2023-04-03T16:21:03;1.45;;;1.33;;
17997;SDS011;9124;48.144;17.098;2023-04-03T16:24:42;2.85;;;1.80;;
17997;SDS011;9124;48.144;17.098;2023-04-03T16:28:19;2.45;;;1.85;;
17997;SDS011;9124;48.144;17.098;2023-04-03T16:31:56;1.60;;;1.50;;
17997;SDS011;9124;48.144;17.098;2023-04-03T16:35:34;4.13;;;1.95;;
17997;SDS011;9124;48.144;17.098;2023-04-03T16:39:10;3.20;;;1.50;;
17997;SDS011;9124;48.144;17.098;2023-04-03T16:42:47;1.48;;;1.35;;
17997;SDS011;9124;48.144;17.098;2023-04-03T16:46:23;2.05;;;1.52;;
17997;SDS011;9124;48.144;17.098;2023-04-03T16:49:59;2.25;;;1.45;;
17997;SDS011;9124;48.144;17.098;2023-04-03T16:53:36;1.90;;;1.80;;
17997;SDS011;9124;48.144;17.098;2023-04-03T16:57:12;1.98;;;1.40;;
17997;SDS011;9124;48.144;17.098;2023-04-03T17:00:49;1.02;;;1.00;;
17997;SDS011;9124;48.144;17.098;2023-04-03T17:04:25;3.70;;;1.33;;
17997;SDS011;9124;48.144;17.098;2023-04-03T17:08:02;2.90;;;1.65;;
17997;SDS011;9124;48.144;17.098;2023-04-03T17:11:38;2.17;;;1.50;;
17997;SDS011;9124;48.144;17.098;2023-04-03T17:15:15;2.10;;;1.45;;
17997;SDS011;9124;48.144;17.098;2023-04-03T17:18:52;2.38;;;1.77;;
17997;SDS011;9124;48.144;17.098;2023-04-03T17:22:30;3.90;;;1.73;;
17997;SDS011;9124;48.144;17.098;2023-04-03T17:26:07;2.65;;;1.58;;
17997;SDS011;9124;48.144;17.098;2023-04-03T17:29:44;1.98;;;1.73;;
17997;SDS011;9124;48.144;17.098;2023-04-03T17:33:21;2.92;;;1.60;;
17997;SDS011;9124;48.144;17.098;2023-04-03T17:36:58;3.10;;;1.52;;
17997;SDS011;9124;48.144;17.098;2023-04-03T17:40:34;2.05;;;1.27;;
17997;SDS011;9124;48.144;17.098;2023-04-03T17:44:11;3.63;;;1.52;;
17997;SDS011;9124;48.144;17.098;2023-04-03T17:47:47;11.20;;;2.00;;
17997;SDS011;9124;48.144;17.098;2023-04-03T17:51:27;2.40;;;1.48;;
17997;SDS011;9124;48.144;17.098;2023-04-03T17:55:04;4.30;;;1.67;;
17997;SDS011;9124;48.144;17.098;2023-04-03T17:58:41;3.03;;;2.00;;
17997;SDS011;9124;48.144;17.098;2023-04-03T18:02:17;2.17;;;1.67;;
17997;SDS011;9124;48.144;17.098;2023-04-03T18:05:53;1.67;;;1.50;;
17997;SDS011;9124;48.144;17.098;2023-04-03T18:09:33;3.05;;;1.60;;
17997;SDS011;9124;48.144;17.098;2023-04-03T18:13:11;5.03;;;1.77;;
17997;SDS011;9124;48.144;17.098;2023-04-03T18:16:48;2.22;;;1.65;;
17997;SDS011;9124;48.144;17.098;2023-04-03T18:20:24;5.72;;;1.75;;
17997;SDS011;9124;48.144;17.098;2023-04-03T18:24:00;2.75;;;2.00;;
17997;SDS011;9124;48.144;17.098;2023-04-03T18:27:37;2.10;;;1.90;;
17997;SDS011;9124;48.144;17.098;2023-04-03T18:31:16;2.75;;;1.38;;
17997;SDS011;9124;48.144;17.098;2023-04-03T18:34:53;5.20;;;1.80;;
17997;SDS011;9124;48.144;17.098;2023-04-03T18:38:31;2.50;;;1.52;;
17997;SDS011;9124;48.144;17.098;2023-04-03T18:42:07;2.55;;;1.50;;
17997;SDS011;9124;48.144;17.098;2023-04-03T18:45:47;3.30;;;1.30;;
17997;SDS011;9124;48.144;17.098;2023-04-03T18:49:23;1.50;;;1.30;;
17997;SDS011;9124;48.144;17.098;2023-04-03T18:53:01;5.32;;;1.60;;
17997;SDS011;9124;48.144;17.098;2023-04-03T18:56:38;1.90;;;1.45;;
17997;SDS011;9124;48.144;17.098;2023-04-03T19:00:15;2.08;;;1.95;;
17997;SDS011;9124;48.144;17.098;2023-04-03T19:03:52;3.15;;;1.85;;
17997;SDS011;9124;48.144;17.098;2023-04-03T19:07:29;4.22;;;1.77;;
17997;SDS011;9124;48.144;17.098;2023-04-03T19:11:05;5.07;;;1.95;;
17997;SDS011;9124;48.144;17.098;2023-04-03T19:14:41;2.10;;;1.90;;
17997;SDS011;9124;48.144;17.098;2023-04-03T19:18:18;5.28;;;1.73;;
17997;SDS011;9124;48.144;17.098;2023-04-03T19:21:54;1.88;;;1.65;;
17997;SDS011;9124;48.144;17.098;2023-04-03T19:25:30;4.47;;;2.22;;
17997;SDS011;9124;48.144;17.098;2023-04-03T19:29:07;2.75;;;1.77;;
17997;SDS011;9124;48.144;17.098;2023-04-03T19:32:44;2.78;;;1.85;;
17997;SDS011;9124;48.144;17.098;2023-04-03T19:36:20;4.53;;;2.63;;
17997;SDS011;9124;48.144;17.098;2023-04-03T19:39:57;6.28;;;2.50;;
17997;SDS011;9124;48.144;17.098;2023-04-03T19:43:33;2.00;;;1.80;;
17997;SDS011;9124;48.144;17.098;2023-04-03T19:47:09;3.78;;;2.30;;
17997;SDS011;9124;48.144;17.098;2023-04-03T19:50:47;5.65;;;1.90;;
17997;SDS011;9124;48.144;17.098;2023-04-03T19:54:23;3.08;;;1.70;;
17997;SDS011;9124;48.144;17.098;2023-04-03T19:58:00;2.25;;;2.05;;
17997;SDS011;9124;48.144;17.098;2023-04-03T20:01:37;2.15;;;1.95;;
17997;SDS011;9124;48.144;17.098;2023-04-03T20:05:13;1.77;;;1.63;;
17997;SDS011;9124;48.144;17.098;2023-04-03T20:08:50;2.05;;;1.75;;
17997;SDS011;9124;48.144;17.098;2023-04-03T20:12:28;2.00;;;1.80;;
17997;SDS011;9124;48.144;17.098;2023-04-03T20:16:05;4.43;;;2.10;;
17997;SDS011;9124;48.144;17.098;2023-04-03T20:19:42;2.45;;;1.85;;
17997;SDS011;9124;48.144;17.098;2023-04-03T20:23:18;2.40;;;2.15;;
17997;SDS011;9124;48.144;17.098;2023-04-03T20:26:57;4.53;;;2.22;;
17997;SDS011;9124;48.144;17.098;2023-04-03T20:30:34;5.55;;;2.50;;
17997;SDS011;9124;48.144;17.098;2023-04-03T20:34:11;4.00;;;2.33;;
17997;SDS011;9124;48.144;17.098;2023-04-03T20:37:48;3.17;;;2.08;;
17997;SDS011;9124;48.144;17.098;2023-04-03T20:41:25;2.13;;;1.77;;
17997;SDS011;9124;48.144;17.098;2023-04-03T20:45:02;3.58;;;2.20;;
17997;SDS011;9124;48.144;17.098;2023-04-03T20:48:38;3.25;;;2.05;;
17997;SDS011;9124;48.144;17.098;2023-04-03T20:52:15;4.15;;;2.28;;
17997;SDS011;9124;48.144;17.098;2023-04-03T20:55:58;3.85;;;1.92;;
17997;SDS011;9124;48.144;17.098;2023-04-03T20:59:36;3.40;;;2.03;;
17997;SDS011;9124;48.144;17.098;2023-04-03T21:03:14;2.90;;;2.63;;
17997;SDS011;9124;48.144;17.098;2023-04-03T21:19:35;4.68;;;2.92;;
17997;SDS011;9124;48.144;17.098;2023-04-03T21:23:17;2.70;;;2.50;;
17997;SDS011;9124;48.144;17.098;2023-04-03T21:26:55;2.70;;;2.40;;
17997;SDS011;9124;48.144;17.098;2023-04-03T21:30:32;2.67;;;2.47;;
17997;SDS011;9124;48.144;17.098;2023-04-03T21:34:08;3.53;;;2.30;;
17997;SDS011;9124;48.144;17.098;2023-04-03T21:37:44;4.43;;;2.25;;
17997;SDS011;9124;48.144;17.098;2023-04-03T21:41:21;3.33;;;2.40;;
17997;SDS011;9124;48.144;17.098;2023-04-03T21:44:57;3.70;;;2.80;;
17997;SDS011;9124;48.144;17.098;2023-04-03T21:48:34;5.50;;;2.40;;
17997;SDS011;9124;48.144;17.098;2023-04-03T21:52:11;2.67;;;2.47;;
17997;SDS011;9124;48.144;17.098;2023-04-03T21:55:53;5.80;;;2.72;;
17997;SDS011;9124;48.144;17.098;2023-04-03T21:59:30;2.95;;;2.28;;
17997;SDS011;9124;48.144;17.098;2023-04-03T22:03:06;3.90;;;2.40;;
17997;SDS011;9124;48.144;17.098;2023-04-03T22:06:43;2.40;;;2.20;;
17997;SDS011;9124;48.144;17.098;2023-04-03T22:10:20;2.95;;;2.22;;
17997;SDS011;9124;48.144;17.098;2023-04-03T22:13:57;2.92;;;2.60;;
17997;SDS011;9124;48.144;17.098;2023-04-03T22:17:34;4.25;;;2.50;;
17997;SDS011;9124;48.144;17.098;2023-04-03T22:21:11;2.90;;;2.17;;
17997;SDS011;9124;48.144;17.098;2023-04-03T22:24:48;2.92;;;2.25;;
17997;SDS011;9124;48.144;17.098;2023-04-03T22:28:25;3.47;;;2.28;;
17997;SDS011;9124;48.144;17.098;2023-04-03T22:32:02;4.07;;;2.35;;
17997;SDS011;9124;48.144;17.098;2023-04-03T22:35:45;3.15;;;2.00;;
17997;SDS011;9124;48.144;17.098;2023-04-03T22:39:22;4.70;;;2.45;;
17997;SDS011;9124;48.144;17.098;2023-04-03T22:42:59;2.50;;;2.00;;
17997;SDS011;9124;48.144;17.098;2023-04-03T22:46:35;2.45;;;2.20;;
17997;SDS011;9124;48.144;17.098;2023-04-03T22:50:12;2.72;;;2.25;;
17997;SDS011;9124;48.144;17.098;2023-04-03T22:53:48;3.63;;;2.70;;
17997;SDS011;9124;48.144;17.098;2023-04-03T22:57:25;3.42;;;2.28;;
17997;SDS011;9124;48.144;17.098;2023-04-03T23:01:05;4.57;;;2.92;;
17997;SDS011;9124;48.144;17.098;2023-04-03T23:04:43;3.65;;;2.33;;
17997;SDS011;9124;48.144;17.098;2023-04-03T23:08:21;6.13;;;2.45;;
17997;SDS011;9124;48.144;17.098;2023-04-03T23:11:57;3.88;;;2.63;;
17997;SDS011;9124;48.144;17.098;2023-04-03T23:15:34;4.18;;;2.50;;
17997;SDS011;9124;48.144;17.098;2023-04-03T23:19:10;2.70;;;2.50;;
17997;SDS011;9124;48.144;17.098;2023-04-03T23:22:47;3.22;;;2.58;;
17997;SDS011;9124;48.144;17.098;2023-04-03T23:26:24;4.03;;;2.30;;
17997;SDS011;9124;48.144;17.098;2023-04-03T23:30:01;3.50;;;1.90;;
17997;SDS011;9124;48.144;17.098;2023-04-03T23:33:38;4.15;;;2.35;;